Time;durP1;ratioP1;P1;durP2;ratioP2;P2;SDS_P1;SDS_P2;PMS_P1;PMS_P2;Temp;Humidity;BMP_temperature;BMP_pressure;BME280_temperature;BME280_humidity;BME280_pressure;Samples;Min_cycle;Max_cycle;Signal;HPM_P1;HPM_P2
2022/07/03 00:01:32;;;;;;;3.28;1.33;;;;;;;;;;5028105;28;20021;-69
2022/07/03 00:03:57;;;;;;;5.13;1.27;;;;;;;;;;5032918;28;20017;-69
2022/07/03 00:06:22;;;;;;;4.37;1.50;;;;;;;;;;5026876;28;20104;-69
2022/07/03 00:08:48;;;;;;;7.25;1.52;;;;;;;;;;5029164;28;20273;-69
2022/07/03 00:11:14;;;;;;;2.50;1.50;;;;;;;;;;5028606;28;20029;-69
2022/07/03 00:13:40;;;;;;;5.22;1.73;;;;;;;;;;5031696;28;20024;-69
2022/07/03 00:16:05;;;;;;;2.80;1.33;;;;;;;;;;5024736;28;20115;-69
2022/07/03 00:18:30;;;;;;;4.97;1.37;;;;;;;;;;5027479;28;20272;-69
2022/07/03 00:21:07;;;;;;;4.95;1.85;;;;;;;;;;5029159;28;20761;-69
2022/07/03 00:23:52;;;;;;;5.20;2.00;;;;;;;;;;5032049;28;20449;-69
2022/07/03 00:26:19;;;;;;;4.43;1.70;;;;;;;;;;5026261;28;20359;-69
2022/07/03 00:28:45;;;;;;;6.63;1.90;;;;;;;;;;5025689;28;20486;-69
2022/07/03 00:31:10;;;;;;;3.30;1.30;;;;;;;;;;5026126;28;20112;-69
2022/07/03 00:33:36;;;;;;;4.45;1.98;;;;;;;;;;5029761;28;20668;-69
2022/07/03 00:36:01;;;;;;;5.20;1.40;;;;;;;;;;5025136;28;20049;-68
2022/07/03 00:38:27;;;;;;;3.88;1.67;;;;;;;;;;5029352;28;20018;-68
2022/07/03 00:40:52;;;;;;;3.53;1.80;;;;;;;;;;5027359;28;20113;-69
2022/07/03 00:43:17;;;;;;;3.63;2.17;;;;;;;;;;5029232;28;20276;-69
2022/07/03 00:45:45;;;;;;;9.20;1.80;;;;;;;;;;5026485;28;20367;-68
2022/07/03 00:48:12;;;;;;;2.78;1.58;;;;;;;;;;5021683;28;20028;-68
2022/07/03 00:50:39;;;;;;;5.07;1.60;;;;;;;;;;5028369;28;20096;-69
2022/07/03 00:53:06;;;;;;;4.28;1.48;;;;;;;;;;5030086;28;20025;-69
2022/07/03 00:55:34;;;;;;;4.57;1.38;;;;;;;;;;5022375;28;20034;-68
2022/07/03 00:57:59;;;;;;;8.00;2.03;;;;;;;;;;5024263;28;20021;-69
2022/07/03 01:00:24;;;;;;;4.88;2.25;;;;;;;;;;5025060;28;20038;-69
2022/07/03 01:02:53;;;;;;;2.85;1.80;;;;;;;;;;5027662;28;20021;-69
2022/07/03 01:05:39;;;;;;;4.88;1.83;;;;;;;;;;5028053;28;20021;-69
2022/07/03 01:08:07;;;;;;;2.72;1.60;;;;;;;;;;5027847;28;20013;-69
2022/07/03 01:10:32;;;;;;;3.08;1.63;;;;;;;;;;5027059;28;20100;-69
2022/07/03 01:13:06;;;;;;;4.17;1.40;;;;;;;;;;5487239;23;20379;-70
2022/07/03 01:15:43;;;;;;;5.45;1.48;;;;;;;;;;5009833;28;20036;-70
2022/07/03 01:18:27;;;;;;;3.95;1.48;;;;;;;;;;5009437;28;20018;-70
2022/07/03 01:20:58;;;;;;;3.63;1.70;;;;;;;;;;5010507;28;20381;-71
2022/07/03 01:23:28;;;;;;;10.93;1.75;;;;;;;;;;5009457;28;20417;-70
2022/07/03 01:25:53;;;;;;;;;;;;;;;;;;5009757;28;20474;-70
2022/07/03 01:28:20;;;;;;;2.50;1.50;;;;;;;;;;5010115;28;20418;-73
2022/07/03 01:30:50;;;;;;;3.17;1.70;;;;;;;;;;5010010;28;20303;-72
2022/07/03 01:33:25;;;;;;;5.32;1.60;;;;;;;;;;5009425;28;20120;-71
2022/07/03 01:36:07;;;;;;;2.70;1.23;;;;;;;;;;5008295;28;20112;-71
2022/07/03 01:38:37;;;;;;;4.05;1.45;;;;;;;;;;5006210;28;20022;-70
2022/07/03 01:41:03;;;;;;;9.15;1.50;;;;;;;;;;5007874;28;20018;-70
2022/07/03 01:43:30;;;;;;;4.00;1.33;;;;;;;;;;5008631;28;20013;-73
2022/07/03 01:46:00;;;;;;;11.90;1.92;;;;;;;;;;5004688;28;20034;-70
2022/07/03 01:48:26;;;;;;;7.65;2.35;;;;;;;;;;5008558;28;20378;-70
2022/07/03 01:50:51;;;;;;;12.27;1.60;;;;;;;;;;5009253;28;20026;-70
2022/07/03 01:53:16;;;;;;;5.13;1.48;;;;;;;;;;5010241;28;20018;-70
2022/07/03 01:55:42;;;;;;;3.60;1.45;;;;;;;;;;5007940;28;20022;-70
2022/07/03 01:58:08;;;;;;;2.72;1.45;;;;;;;;;;5006678;28;20033;-70
2022/07/03 02:00:52;;;;;;;7.55;1.70;;;;;;;;;;5009731;28;20386;-71
2022/07/03 02:03:23;;;;;;;2.65;1.30;;;;;;;;;;5008644;28;20101;-70
2022/07/03 02:05:51;;;;;;;4.53;1.40;;;;;;;;;;5008244;28;20022;-70
2022/07/03 02:08:42;;;;;;;5.40;2.25;;;;;;;;;;5008975;28;20025;-70
2022/07/03 02:11:08;;;;;;;4.35;1.48;;;;;;;;;;5005326;28;20506;-71
2022/07/03 02:13:37;;;;;;;3.45;1.30;;;;;;;;;;5009484;28;20065;-70
2022/07/03 02:16:02;;;;;;;4.45;1.55;;;;;;;;;;5008099;28;20432;-71
2022/07/03 02:18:28;;;;;;;5.72;1.92;;;;;;;;;;5009515;28;20109;-70
2022/07/03 02:21:09;;;;;;;4.82;1.92;;;;;;;;;;5003233;28;20093;-71
2022/07/03 02:23:39;;;;;;;7.38;1.98;;;;;;;;;;5010151;28;20113;-70
2022/07/03 02:26:05;;;;;;;4.88;1.60;;;;;;;;;;5007058;28;20068;-71
2022/07/03 02:28:39;;;;;;;9.10;1.90;;;;;;;;;;5008962;28;20065;-70
2022/07/03 02:31:07;;;;;;;3.53;1.40;;;;;;;;;;5007298;28;20018;-71
2022/07/03 02:33:35;;;;;;;7.00;1.85;;;;;;;;;;5009342;28;20468;-72
2022/07/03 02:36:01;;;;;;;7.05;1.90;;;;;;;;;;5008345;28;20379;-71
2022/07/03 02:38:27;;;;;;;6.63;1.70;;;;;;;;;;5007666;28;20056;-71
2022/07/03 02:41:11;;;;;;;2.95;1.55;;;;;;;;;;5007356;28;20022;-70
2022/07/03 02:43:41;;;;;;;4.70;1.67;;;;;;;;;;5007853;28;20459;-71
2022/07/03 02:46:48;;;;;;;3.35;1.67;;;;;;;;;;5007160;28;20490;-71
2022/07/03 02:48:54;;;;;;;6.32;2.17;;;;;;;;;;5008467;28;20076;-71
2022/07/03 02:51:21;;;;;;;8.30;1.83;;;;;;;;;;5007032;28;20040;-72
2022/07/03 02:53:53;;;;;;;4.05;1.90;;;;;;;;;;5008847;28;20068;-72
2022/07/03 02:56:21;;;;;;;3.22;1.40;;;;;;;;;;5006917;28;20057;-70
2022/07/03 02:58:52;;;;;;;5.85;1.75;;;;;;;;;;5008640;28;20040;-70
2022/07/03 03:01:28;;;;;;;4.80;1.80;;;;;;;;;;5009128;28;20064;-72
2022/07/03 03:04:01;;;;;;;2.78;1.70;;;;;;;;;;5009538;28;20373;-70
2022/07/03 03:06:27;;;;;;;4.32;1.73;;;;;;;;;;5007318;28;20536;-71
2022/07/03 03:08:57;;;;;;;3.17;1.70;;;;;;;;;;5006632;28;20030;-71
2022/07/03 03:11:22;;;;;;;;;;;;;;;;;;5007914;28;20017;-71
2022/07/03 03:13:49;;;;;;;5.57;1.67;;;;;;;;;;5008400;28;19913;-70
2022/07/03 03:16:15;;;;;;;3.60;2.08;;;;;;;;;;5010784;28;20030;-72
2022/07/03 03:18:41;;;;;;;4.00;1.85;;;;;;;;;;5012962;28;20026;-70
2022/07/03 03:21:09;;;;;;;5.60;1.65;;;;;;;;;;5012367;28;20017;-70
2022/07/03 03:23:45;;;;;;;5.80;1.90;;;;;;;;;;5011183;28;20096;-71
2022/07/03 03:26:13;;;;;;;4.85;1.95;;;;;;;;;;5011171;28;20026;-71
2022/07/03 03:28:39;;;;;;;4.35;2.10;;;;;;;;;;5013022;28;20677;-70
2022/07/03 03:31:08;;;;;;;5.43;2.10;;;;;;;;;;5010639;28;20415;-71
2022/07/03 03:33:33;;;;;;;4.55;1.92;;;;;;;;;;5012398;28;20533;-71
2022/07/03 03:35:58;;;;;;;5.05;2.03;;;;;;;;;;5009633;28;20104;-71
2022/07/03 03:38:23;;;;;;;4.28;1.80;;;;;;;;;;5011625;28;20159;-70
2022/07/03 03:40:49;;;;;;;7.88;2.20;;;;;;;;;;5012230;28;20057;-72
2022/07/03 03:43:14;;;;;;;6.63;2.25;;;;;;;;;;5011799;28;20053;-70
2022/07/03 03:45:39;;;;;;;4.27;2.10;;;;;;;;;;5010940;28;20022;-70
2022/07/03 03:48:05;;;;;;;4.53;1.88;;;;;;;;;;5012628;28;20273;-70
2022/07/03 03:50:30;;;;;;;3.90;1.83;;;;;;;;;;5011487;28;20065;-70
2022/07/03 03:52:58;;;;;;;2.05;1.67;;;;;;;;;;5011865;28;20018;-70
2022/07/03 03:55:23;;;;;;;5.28;1.58;;;;;;;;;;5011313;28;20409;-72
2022/07/03 03:57:48;;;;;;;4.95;1.83;;;;;;;;;;5012011;28;20036;-70
2022/07/03 04:00:14;;;;;;;2.33;1.77;;;;;;;;;;5010316;28;20084;-71
2022/07/03 04:02:39;;;;;;;4.45;2.40;;;;;;;;;;5007787;28;20300;-70
2022/07/03 04:05:04;;;;;;;5.63;1.80;;;;;;;;;;5009077;28;20026;-71
2022/07/03 04:07:30;;;;;;;4.03;1.80;;;;;;;;;;5011447;28;20281;-72
2022/07/03 04:09:55;;;;;;;4.43;1.70;;;;;;;;;;5012309;28;20100;-71
2022/07/03 04:12:21;;;;;;;5.10;1.77;;;;;;;;;;5011653;28;20276;-70
2022/07/03 04:14:46;;;;;;;3.57;1.93;;;;;;;;;;5009362;28;20435;-73
2022/07/03 04:17:11;;;;;;;8.70;1.90;;;;;;;;;;5010983;28;20269;-70
2022/07/03 04:19:36;;;;;;;8.47;2.10;;;;;;;;;;5009825;28;20308;-72
2022/07/03 04:22:02;;;;;;;5.03;1.60;;;;;;;;;;5009951;28;20280;-72
2022/07/03 04:24:27;;;;;;;3.00;1.67;;;;;;;;;;5011595;28;20022;-70
2022/07/03 04:26:52;;;;;;;3.80;2.70;;;;;;;;;;5010115;28;20476;-71
2022/07/03 04:29:17;;;;;;;6.73;2.07;;;;;;;;;;5011499;28;20268;-70
2022/07/03 04:31:42;;;;;;;3.20;1.93;;;;;;;;;;5010544;28;20272;-72
2022/07/03 04:34:07;;;;;;;5.57;1.73;;;;;;;;;;5011560;28;20269;-70
2022/07/03 04:36:33;;;;;;;4.45;1.83;;;;;;;;;;5009282;28;20284;-72
2022/07/03 04:38:58;;;;;;;7.68;1.52;;;;;;;;;;5011906;28;20032;-70
2022/07/03 04:41:23;;;;;;;5.63;1.87;;;;;;;;;;5010665;28;20359;-72
2022/07/03 04:43:48;;;;;;;3.43;1.90;;;;;;;;;;5011842;28;20371;-70
2022/07/03 04:46:13;;;;;;;2.40;1.70;;;;;;;;;;5009382;28;20281;-71
2022/07/03 04:48:39;;;;;;;6.40;2.10;;;;;;;;;;5010984;28;20136;-70
2022/07/03 04:51:04;;;;;;;6.38;2.03;;;;;;;;;;5010862;28;20040;-70
2022/07/03 04:53:29;;;;;;;10.43;2.40;;;;;;;;;;5011062;28;20018;-71
2022/07/03 04:55:54;;;;;;;3.80;1.60;;;;;;;;;;5009522;28;20072;-70
2022/07/03 04:58:20;;;;;;;4.05;1.73;;;;;;;;;;5009417;28;20030;-71
2022/07/03 05:00:45;;;;;;;6.90;2.03;;;;;;;;;;5009001;28;20017;-70
2022/07/03 05:03:10;;;;;;;8.27;1.92;;;;;;;;;;5011543;28;20040;-70
2022/07/03 05:05:36;;;;;;;3.95;1.80;;;;;;;;;;5009728;28;20022;-71
2022/07/03 05:08:01;;;;;;;4.13;1.83;;;;;;;;;;5010670;28;20109;-70
2022/07/03 05:10:26;;;;;;;3.33;1.70;;;;;;;;;;5010081;28;20323;-71
2022/07/03 05:12:52;;;;;;;4.50;1.85;;;;;;;;;;5009860;28;20776;-71
2022/07/03 05:15:17;;;;;;;4.28;2.00;;;;;;;;;;5009869;28;20114;-70
2022/07/03 05:17:42;;;;;;;8.15;1.85;;;;;;;;;;5009226;28;20559;-70
2022/07/03 05:22:52;;;;;;;4.57;2.00;;;;;;;;;;5010639;28;20455;-70
2022/07/03 05:25:17;;;;;;;4.97;2.10;;;;;;;;;;5008944;28;20100;-70
2022/07/03 05:27:43;;;;;;;5.13;2.05;;;;;;;;;;5006411;28;20022;-73
2022/07/03 05:30:08;;;;;;;5.78;2.20;;;;;;;;;;5009936;28;20053;-70
2022/07/03 05:32:33;;;;;;;3.33;1.85;;;;;;;;;;5009523;28;20026;-70
2022/07/03 05:34:59;;;;;;;3.60;2.03;;;;;;;;;;5008982;28;20026;-70
2022/07/03 05:37:24;;;;;;;8.57;1.95;;;;;;;;;;5007710;28;20057;-70
2022/07/03 05:39:49;;;;;;;5.28;1.42;;;;;;;;;;5008920;28;20414;-72
2022/07/03 05:42:14;;;;;;;3.47;1.87;;;;;;;;;;5009540;28;20026;-70
2022/07/03 05:44:40;;;;;;;5.33;2.20;;;;;;;;;;5006264;28;20268;-71
2022/07/03 05:47:05;;;;;;;5.40;2.87;;;;;;;;;;5008649;28;20292;-70
2022/07/03 05:49:30;;;;;;;4.53;2.20;;;;;;;;;;5009458;28;20303;-71
2022/07/03 05:51:55;;;;;;;8.52;2.15;;;;;;;;;;5008542;28;20017;-70
2022/07/03 05:54:20;;;;;;;6.17;2.20;;;;;;;;;;5011192;28;20024;-71
2022/07/03 05:56:46;;;;;;;5.13;2.47;;;;;;;;;;5008581;28;20832;-71
2022/07/03 05:59:11;;;;;;;10.37;3.40;;;;;;;;;;5007025;28;20272;-72
2022/07/03 06:01:36;;;;;;;4.80;2.53;;;;;;;;;;5009650;28;20319;-70
2022/07/03 06:04:01;;;;;;;8.43;2.83;;;;;;;;;;5009690;28;20273;-71
2022/07/03 06:06:26;;;;;;;9.03;3.07;;;;;;;;;;5006064;28;20049;-70
2022/07/03 06:08:53;;;;;;;7.20;3.25;;;;;;;;;;5004414;28;20384;-70
2022/07/03 06:11:18;;;;;;;12.97;3.00;;;;;;;;;;5009612;28;20136;-71
2022/07/03 06:13:43;;;;;;;8.60;3.30;;;;;;;;;;5009295;28;20773;-70
2022/07/03 06:16:08;;;;;;;7.67;3.60;;;;;;;;;;5005094;28;20269;-71
2022/07/03 06:18:33;;;;;;;9.17;3.77;;;;;;;;;;5009738;28;21043;-70
2022/07/03 06:20:58;;;;;;;10.60;4.28;;;;;;;;;;5005772;28;20280;-72
2022/07/03 06:23:24;;;;;;;8.20;3.67;;;;;;;;;;5006615;28;20028;-70
2022/07/03 06:25:49;;;;;;;8.77;4.20;;;;;;;;;;5006636;28;20033;-71
2022/07/03 06:28:14;;;;;;;12.90;4.03;;;;;;;;;;5006782;28;20030;-70
2022/07/03 06:30:40;;;;;;;9.37;3.63;;;;;;;;;;5006401;28;20273;-71
2022/07/03 06:33:05;;;;;;;9.82;3.65;;;;;;;;;;5006279;28;20277;-72
2022/07/03 06:35:30;;;;;;;14.10;3.67;;;;;;;;;;5006191;28;20034;-71
2022/07/03 06:37:55;;;;;;;11.23;2.83;;;;;;;;;;5008105;28;20020;-72
2022/07/03 06:40:20;;;;;;;7.17;3.00;;;;;;;;;;5007743;28;20502;-71
2022/07/03 06:42:46;;;;;;;7.63;2.80;;;;;;;;;;5003377;28;20320;-71
2022/07/03 06:45:11;;;;;;;7.73;3.03;;;;;;;;;;5008457;28;20091;-68
2022/07/03 06:47:37;;;;;;;9.57;3.90;;;;;;;;;;4999473;28;20088;-71
2022/07/03 06:50:02;;;;;;;11.60;2.95;;;;;;;;;;5007396;28;20022;-71
2022/07/03 06:52:27;;;;;;;10.43;3.67;;;;;;;;;;5012378;28;20021;-73
2022/07/03 06:54:52;;;;;;;15.13;3.10;;;;;;;;;;5008193;28;20416;-72
2022/07/03 06:57:18;;;;;;;9.27;3.27;;;;;;;;;;5011853;28;20064;-72
2022/07/03 06:59:43;;;;;;;9.30;1.90;;;;;;;;;;5013902;28;20256;-72
2022/07/03 07:02:08;;;;;;;12.45;2.40;;;;;;;;;;5010944;28;20564;-72
2022/07/03 07:04:33;;;;;;;5.30;1.98;;;;;;;;;;5009166;28;20014;-71
2022/07/03 07:06:58;;;;;;;10.63;3.10;;;;;;;;;;5008586;28;20018;-70
2022/07/03 07:09:23;;;;;;;7.67;2.77;;;;;;;;;;5012726;28;20398;-73
2022/07/03 07:11:49;;;;;;;5.97;2.73;;;;;;;;;;5013071;28;20044;-71
2022/07/03 07:14:14;;;;;;;11.43;2.83;;;;;;;;;;5013826;28;20374;-73
2022/07/03 07:16:39;;;;;;;6.57;2.70;;;;;;;;;;5011770;28;20057;-72
2022/07/03 07:19:04;;;;;;;12.83;2.87;;;;;;;;;;5009754;28;20394;-72
2022/07/03 07:21:29;;;;;;;11.40;2.77;;;;;;;;;;5009020;28;20289;-71
2022/07/03 07:23:54;;;;;;;6.63;2.53;;;;;;;;;;5009582;28;20030;-70
2022/07/03 07:26:20;;;;;;;23.63;2.67;;;;;;;;;;5009877;28;20065;-70
2022/07/03 07:28:45;;;;;;;12.75;2.50;;;;;;;;;;5012263;28;20100;-70
2022/07/03 07:31:10;;;;;;;11.50;2.90;;;;;;;;;;5007944;28;20037;-70
2022/07/03 07:33:35;;;;;;;7.67;2.70;;;;;;;;;;5010863;28;20050;-70
2022/07/03 07:36:01;;;;;;;15.57;2.77;;;;;;;;;;5012399;28;20113;-70
2022/07/03 07:38:26;;;;;;;9.87;2.77;;;;;;;;;;5015742;28;20022;-71
2022/07/03 07:40:51;;;;;;;9.83;3.47;;;;;;;;;;5010621;28;20331;-71
2022/07/03 07:43:16;;;;;;;8.10;3.07;;;;;;;;;;5012306;28;20105;-70
2022/07/03 07:45:42;;;;;;;9.70;3.43;;;;;;;;;;5009608;28;20084;-71
2022/07/03 07:48:07;;;;;;;21.75;3.20;;;;;;;;;;5012945;28;20414;-71
2022/07/03 07:50:32;;;;;;;8.70;3.43;;;;;;;;;;5010960;28;20022;-73
2022/07/03 07:52:57;;;;;;;9.95;2.58;;;;;;;;;;5012380;28;20025;-72
2022/07/03 07:55:25;;;;;;;9.73;2.78;;;;;;;;;;5010616;28;20451;-73
2022/07/03 07:57:50;;;;;;;7.10;2.80;;;;;;;;;;5009028;28;20037;-72
2022/07/03 08:00:16;;;;;;;11.70;3.30;;;;;;;;;;5003984;28;20018;-72
2022/07/03 08:05:35;;;;;;;8.00;2.95;;;;;;;;;;4992469;28;20450;-72
2022/07/03 08:08:01;;;;;;;13.60;3.30;;;;;;;;;;4993489;28;20018;-72
2022/07/03 08:10:26;;;;;;;13.23;2.60;;;;;;;;;;4995743;28;20029;-71
2022/07/03 08:12:51;;;;;;;8.97;2.53;;;;;;;;;;5012782;28;20030;-71
2022/07/03 08:15:16;;;;;;;8.27;2.57;;;;;;;;;;5012032;28;20057;-72
2022/07/03 08:17:41;;;;;;;5.57;2.13;;;;;;;;;;5012613;28;20061;-71
2022/07/03 08:20:07;;;;;;;9.17;3.10;;;;;;;;;;5012559;28;20265;-72
2022/07/03 08:22:32;;;;;;;17.52;2.78;;;;;;;;;;5012224;28;20264;-71
2022/07/03 08:24:57;;;;;;;9.57;2.77;;;;;;;;;;5013121;28;20109;-71
2022/07/03 08:27:22;;;;;;;13.60;3.03;;;;;;;;;;5012644;28;20514;-71
2022/07/03 08:29:47;;;;;;;8.43;2.50;;;;;;;;;;5011729;28;20022;-71
2022/07/03 08:32:13;;;;;;;8.50;3.07;;;;;;;;;;5010750;28;20483;-71
2022/07/03 08:34:38;;;;;;;10.53;2.70;;;;;;;;;;5011206;28;20021;-71
2022/07/03 08:37:03;;;;;;;11.93;2.70;;;;;;;;;;5012037;28;20022;-71
2022/07/03 08:39:28;;;;;;;6.18;2.13;;;;;;;;;;5010747;28;20030;-71
2022/07/03 08:41:54;;;;;;;10.07;2.10;;;;;;;;;;5005269;28;20069;-71
2022/07/03 08:44:20;;;;;;;6.55;2.00;;;;;;;;;;5011481;28;20033;-71
2022/07/03 08:46:47;;;;;;;9.88;2.72;;;;;;;;;;5010919;28;20022;-71
2022/07/03 08:49:12;;;;;;;8.27;2.17;;;;;;;;;;5011893;28;20018;-72
2022/07/03 08:51:37;;;;;;;6.20;2.13;;;;;;;;;;5010341;28;20021;-71
2022/07/03 08:54:04;;;;;;;7.35;2.33;;;;;;;;;;5011731;28;20241;-71
2022/07/03 08:56:29;;;;;;;9.38;2.90;;;;;;;;;;5008851;28;20113;-72
2022/07/03 08:58:58;;;;;;;7.67;2.37;;;;;;;;;;5010811;28;20116;-72
2022/07/03 09:01:23;;;;;;;7.30;2.22;;;;;;;;;;5005164;28;20025;-72
2022/07/03 09:03:50;;;;;;;12.60;3.00;;;;;;;;;;5006964;28;20529;-72
2022/07/03 09:06:15;;;;;;;7.78;2.22;;;;;;;;;;5009586;28;20030;-72
2022/07/03 09:08:40;;;;;;;4.82;2.38;;;;;;;;;;5009862;28;20084;-70
2022/07/03 09:11:06;;;;;;;6.20;1.92;;;;;;;;;;5009504;28;20013;-70
2022/07/03 09:13:31;;;;;;;7.22;2.70;;;;;;;;;;5008671;28;20076;-73
2022/07/03 09:15:56;;;;;;;6.50;2.23;;;;;;;;;;5010387;28;20053;-73
2022/07/03 09:18:42;;;;;;;7.40;2.43;;;;;;;;;;5012316;28;20276;-70
2022/07/03 09:21:08;;;;;;;14.05;3.00;;;;;;;;;;5009085;28;20096;-71
2022/07/03 09:23:38;;;;;;;12.25;2.50;;;;;;;;;;5011169;28;20122;-70
2022/07/03 09:26:03;;;;;;;11.63;2.28;;;;;;;;;;5011378;28;20030;-70
2022/07/03 09:28:44;;;;;;;12.27;2.45;;;;;;;;;;5010247;28;20032;-73
2022/07/03 09:31:10;;;;;;;4.35;1.83;;;;;;;;;;5009754;28;20045;-71
2022/07/03 09:33:35;;;;;;;6.68;2.00;;;;;;;;;;5010495;28;20487;-71
2022/07/03 09:36:00;;;;;;;6.47;2.00;;;;;;;;;;5011084;28;20030;-71
2022/07/03 09:38:25;;;;;;;5.07;2.00;;;;;;;;;;5010043;28;20033;-71
2022/07/03 09:40:52;;;;;;;7.57;3.00;;;;;;;;;;5010347;28;20034;-72
2022/07/03 09:43:24;;;;;;;9.73;2.25;;;;;;;;;;5009636;28;20738;-72
2022/07/03 09:46:00;;;;;;;5.40;2.63;;;;;;;;;;5010265;28;20360;-72
2022/07/03 09:48:26;;;;;;;9.00;1.98;;;;;;;;;;5006287;28;20021;-72
2022/07/03 09:51:08;;;;;;;19.17;3.47;;;;;;;;;;5011311;28;20141;-72
2022/07/03 09:53:53;;;;;;;10.77;3.00;;;;;;;;;;5007465;28;20025;-72
2022/07/03 09:56:19;;;;;;;8.43;2.60;;;;;;;;;;5007865;28;20025;-72
2022/07/03 09:59:01;;;;;;;6.97;2.38;;;;;;;;;;5009537;28;20053;-72
2022/07/03 10:01:26;;;;;;;5.80;1.88;;;;;;;;;;5009198;28;20045;-72
2022/07/03 10:03:51;;;;;;;4.50;1.90;;;;;;;;;;5009580;28;20049;-72
2022/07/03 10:06:16;;;;;;;8.23;3.03;;;;;;;;;;5008143;28;20497;-72
2022/07/03 10:08:42;;;;;;;4.57;2.33;;;;;;;;;;5010215;28;20426;-72
2022/07/03 10:11:08;;;;;;;13.23;2.28;;;;;;;;;;5008973;28;20080;-72
2022/07/03 10:13:36;;;;;;;8.48;2.53;;;;;;;;;;5009738;28;20025;-73
2022/07/03 10:16:02;;;;;;;6.13;2.47;;;;;;;;;;5009815;28;20120;-72
2022/07/03 10:18:29;;;;;;;6.55;1.92;;;;;;;;;;5009844;28;20505;-72
2022/07/03 10:20:56;;;;;;;5.38;1.58;;;;;;;;;;5006993;28;20501;-73
2022/07/03 10:23:22;;;;;;;6.85;2.38;;;;;;;;;;5008874;28;20036;-73
2022/07/03 10:25:48;;;;;;;5.03;1.90;;;;;;;;;;5009067;28;20044;-73
2022/07/03 10:28:14;;;;;;;8.43;2.40;;;;;;;;;;5011143;28;20466;-73
2022/07/03 10:30:39;;;;;;;4.18;1.77;;;;;;;;;;5011164;28;20025;-73
2022/07/03 10:33:05;;;;;;;11.63;2.13;;;;;;;;;;5011501;28;20006;-72
2022/07/03 10:35:34;;;;;;;7.43;2.13;;;;;;;;;;5009867;28;20053;-73
2022/07/03 10:38:02;;;;;;;7.97;2.22;;;;;;;;;;5010456;28;20729;-72
2022/07/03 10:46:14;;;;;;;7.22;1.40;;;;;;;;;;5008835;28;20041;-73
2022/07/03 10:48:40;;;;;;;;;;;;;;;;;;5009894;28;20462;-72
2022/07/03 10:51:14;;;;;;;9.40;1.58;;;;;;;;;;5010351;28;20286;-72
2022/07/03 10:53:39;;;;;;;7.43;2.03;;;;;;;;;;5009522;28;20018;-72
2022/07/03 10:56:04;;;;;;;6.93;2.33;;;;;;;;;;5008554;28;20052;-73
2022/07/03 10:58:29;;;;;;;4.07;1.48;;;;;;;;;;5010041;28;20484;-73
2022/07/03 11:00:56;;;;;;;6.70;1.47;;;;;;;;;;5009042;28;20045;-73
2022/07/03 11:03:48;;;;;;;3.95;1.30;;;;;;;;;;5007305;28;21632;-72
2022/07/03 11:06:13;;;;;;;2.60;1.38;;;;;;;;;;5007301;28;20034;-72
2022/07/03 11:08:58;;;;;;;6.63;1.50;;;;;;;;;;5010127;28;20463;-73
2022/07/03 11:12:00;;;;;;;9.27;2.55;;;;;;;;;;5002871;28;20026;-72
2022/07/03 11:14:26;;;;;;;5.60;1.90;;;;;;;;;;5004598;28;20109;-72
2022/07/03 11:17:10;;;;;;;4.90;1.50;;;;;;;;;;5006632;28;20022;-73
2022/07/03 11:19:35;;;;;;;2.50;1.10;;;;;;;;;;5007352;28;20045;-72
2022/07/03 11:22:06;;;;;;;6.97;1.40;;;;;;;;;;5004987;28;20508;-73
2022/07/03 11:24:36;;;;;;;8.65;1.40;;;;;;;;;;5008645;28;20073;-72
2022/07/03 11:27:01;;;;;;;;;;;;;;;;;;5009350;28;20109;-72
2022/07/03 11:29:28;;;;;;;4.95;1.65;;;;;;;;;;5009101;28;20228;-73
2022/07/03 11:31:53;;;;;;;5.53;1.65;;;;;;;;;;5008736;28;20025;-73
2022/07/03 11:34:19;;;;;;;5.45;2.15;;;;;;;;;;5008828;28;20010;-73
2022/07/03 11:36:44;;;;;;;6.13;1.38;;;;;;;;;;5011834;28;20040;-73
2022/07/03 11:39:12;;;;;;;4.43;1.43;;;;;;;;;;5012805;28;20036;-72
2022/07/03 11:41:37;;;;;;;3.33;1.08;;;;;;;;;;5012372;28;20277;-73
2022/07/03 11:44:06;;;;;;;8.85;1.88;;;;;;;;;;5012818;28;20037;-73
2022/07/03 11:46:32;;;;;;;5.95;1.45;;;;;;;;;;5013079;28;20100;-72
2022/07/03 11:49:10;;;;;;;4.53;1.85;;;;;;;;;;5012823;28;20025;-72
2022/07/03 11:51:37;;;;;;;4.43;1.90;;;;;;;;;;5009469;28;20029;-73
2022/07/03 11:54:03;;;;;;;4.97;1.30;;;;;;;;;;5012477;28;20028;-72
2022/07/03 11:56:28;;;;;;;3.97;1.40;;;;;;;;;;5012725;28;20471;-72
2022/07/03 11:58:56;;;;;;;6.97;1.60;;;;;;;;;;5012862;28;20037;-73
2022/07/03 12:01:24;;;;;;;7.88;2.00;;;;;;;;;;5007956;28;20309;-73
2022/07/03 12:03:49;;;;;;;5.30;1.60;;;;;;;;;;5011954;28;20091;-73
2022/07/03 12:06:15;;;;;;;9.10;2.10;;;;;;;;;;5012403;28;20474;-73
2022/07/03 12:08:42;;;;;;;4.53;1.27;;;;;;;;;;5012919;28;20017;-73
2022/07/03 12:11:08;;;;;;;5.85;1.35;;;;;;;;;;5011783;28;20026;-72
2022/07/03 12:13:33;;;;;;;7.32;1.25;;;;;;;;;;5011850;28;20108;-72
2022/07/03 12:16:09;;;;;;;2.55;1.10;;;;;;;;;;5007919;28;20109;-72
2022/07/03 12:18:54;;;;;;;6.10;1.52;;;;;;;;;;5011859;28;20022;-72
2022/07/03 12:21:20;;;;;;;5.50;1.40;;;;;;;;;;5010533;28;20025;-72
2022/07/03 12:23:49;;;;;;;10.85;2.28;;;;;;;;;;5011564;28;20026;-72
2022/07/03 12:26:27;;;;;;;5.17;1.30;;;;;;;;;;5010645;28;20029;-73
2022/07/03 12:28:53;;;;;;;9.85;1.23;;;;;;;;;;5009046;28;20010;-72
2022/07/03 12:31:18;;;;;;;10.45;1.27;;;;;;;;;;5023254;28;20374;-72
2022/07/03 12:33:43;;;;;;;5.27;1.20;;;;;;;;;;5012134;28;20024;-72
2022/07/03 12:36:09;;;;;;;3.50;1.20;;;;;;;;;;5010831;28;20280;-72
2022/07/03 12:38:37;;;;;;;4.40;1.50;;;;;;;;;;5009634;28;20019;-72
2022/07/03 12:41:06;;;;;;;3.35;0.88;;;;;;;;;;5009344;28;20363;-72
2022/07/03 12:43:42;;;;;;;5.90;1.10;;;;;;;;;;5009905;28;20056;-72
2022/07/03 12:46:22;;;;;;;8.85;1.30;;;;;;;;;;5009759;28;20036;-72
2022/07/03 12:48:57;;;;;;;6.45;0.73;;;;;;;;;;5010475;28;20060;-72
2022/07/03 12:51:41;;;;;;;4.10;1.27;;;;;;;;;;5011179;28;20374;-73
2022/07/03 12:54:13;;;;;;;3.38;1.05;;;;;;;;;;5011664;28;20033;-73
2022/07/03 12:56:38;;;;;;;5.32;1.23;;;;;;;;;;5011946;28;20051;-73
2022/07/03 12:59:16;;;;;;;7.72;1.00;;;;;;;;;;5010915;28;20064;-73
2022/07/03 13:01:42;;;;;;;3.70;1.00;;;;;;;;;;5007303;28;20026;-72
2022/07/03 13:04:17;;;;;;;7.55;1.20;;;;;;;;;;5009349;28;20045;-72
2022/07/03 13:06:45;;;;;;;4.43;1.83;;;;;;;;;;5009485;28;20025;-72
2022/07/03 13:09:10;;;;;;;3.00;0.93;;;;;;;;;;5012144;28;20018;-72
2022/07/03 13:11:39;;;;;;;9.27;1.58;;;;;;;;;;5010547;28;20024;-72
2022/07/03 13:14:05;;;;;;;8.07;1.13;;;;;;;;;;5034123;22;20049;-69
2022/07/03 13:16:35;;;;;;;4.18;1.30;;;;;;;;;;5010049;28;20470;-69
2022/07/03 13:19:02;;;;;;;8.52;1.23;;;;;;;;;;5011405;28;20500;-69
2022/07/03 13:21:27;;;;;;;6.93;1.48;;;;;;;;;;5011413;28;20018;-69
2022/07/03 13:23:53;;;;;;;7.40;1.50;;;;;;;;;;4998435;28;20367;-69
2022/07/03 13:26:18;;;;;;;5.27;1.53;;;;;;;;;;4990631;28;20038;-69
2022/07/03 13:28:43;;;;;;;3.90;1.20;;;;;;;;;;4995403;28;20632;-69
2022/07/03 13:31:08;;;;;;;5.20;1.15;;;;;;;;;;4995900;28;20026;-68
2022/07/03 13:33:33;;;;;;;3.73;1.10;;;;;;;;;;4991909;28;20114;-68
2022/07/03 13:35:59;;;;;;;6.63;2.20;;;;;;;;;;4993964;28;20722;-69
2022/07/03 13:38:24;;;;;;;2.97;1.10;;;;;;;;;;4993135;28;20051;-68
2022/07/03 13:40:49;;;;;;;3.07;1.03;;;;;;;;;;4989435;28;20613;-68
2022/07/03 13:43:14;;;;;;;5.03;1.17;;;;;;;;;;4991724;28;20169;-68
2022/07/03 13:45:39;;;;;;;4.78;1.42;;;;;;;;;;4987195;28;20394;-68
2022/07/03 13:48:05;;;;;;;5.90;1.08;;;;;;;;;;4989248;28;20018;-68
2022/07/03 13:50:30;;;;;;;3.83;1.10;;;;;;;;;;4991473;28;20018;-68
2022/07/03 13:52:55;;;;;;;3.30;0.88;;;;;;;;;;4988996;28;20046;-68
2022/07/03 13:55:21;;;;;;;8.43;1.17;;;;;;;;;;4989509;28;20018;-68
2022/07/03 13:57:46;;;;;;;6.43;1.10;;;;;;;;;;4990732;28;20026;-67
2022/07/03 14:00:12;;;;;;;6.75;0.98;;;;;;;;;;4989880;28;20018;-68
2022/07/03 14:02:39;;;;;;;3.58;1.23;;;;;;;;;;4988280;28;20025;-68
2022/07/03 14:05:04;;;;;;;5.57;1.90;;;;;;;;;;4989860;28;20088;-68
2022/07/03 14:07:29;;;;;;;4.35;0.98;;;;;;;;;;4988014;28;20510;-68
2022/07/03 14:09:54;;;;;;;3.07;1.13;;;;;;;;;;4989445;28;20378;-69
2022/07/03 14:12:19;;;;;;;13.77;1.00;;;;;;;;;;4992262;28;20049;-69
2022/07/03 14:14:45;;;;;;;6.37;0.77;;;;;;;;;;4989755;28;20331;-69
2022/07/03 14:17:10;;;;;;;2.17;0.90;;;;;;;;;;4984341;28;20133;-68
2022/07/03 14:19:35;;;;;;;6.13;1.27;;;;;;;;;;4994809;28;20276;-68
2022/07/03 14:22:00;;;;;;;3.10;0.80;;;;;;;;;;4989675;28;20105;-68
2022/07/03 14:24:25;;;;;;;4.73;1.13;;;;;;;;;;4990097;28;20026;-68
2022/07/03 14:32:33;;;;;;;4.60;0.90;;;;;;;;;;4983165;28;20038;-68
2022/07/03 14:35:00;;;;;;;6.63;1.33;;;;;;;;;;4989792;28;20010;-68
2022/07/03 14:37:25;;;;;;;7.85;1.02;;;;;;;;;;4988477;28;20096;-68
2022/07/03 14:39:51;;;;;;;3.95;0.80;;;;;;;;;;4989668;28;20435;-68
2022/07/03 14:42:16;;;;;;;1.75;0.70;;;;;;;;;;4990631;28;20026;-68
2022/07/03 14:44:42;;;;;;;8.43;0.90;;;;;;;;;;4990425;28;20030;-68
2022/07/03 14:47:07;;;;;;;4.20;1.30;;;;;;;;;;4990001;28;20475;-69
2022/07/03 14:49:33;;;;;;;7.37;1.00;;;;;;;;;;4994904;28;21084;-68
2022/07/03 14:52:02;;;;;;;19.90;1.55;;;;;;;;;;4993528;28;20282;-68
2022/07/03 14:54:28;;;;;;;7.32;0.63;;;;;;;;;;4990614;28;20022;-68
2022/07/03 14:56:54;;;;;;;3.38;0.90;;;;;;;;;;4987593;28;20081;-68
2022/07/03 14:59:27;;;;;;;2.17;0.57;;;;;;;;;;4986123;28;20026;-68
2022/07/03 15:01:54;;;;;;;5.20;1.13;;;;;;;;;;4990320;28;20153;-67